sensor_id;sensor_type;location;lat;lon;timestamp;pressure;altitude;pressure_sealevel;temperature;humidity
42511;BME280;28141;51.120;17.114;2023-05-18T00:01:25;102479.78;;;25.79;33.71
42511;BME280;28141;51.120;17.114;2023-05-18T00:04:43;102483.22;;;25.81;33.44
42511;BME280;28141;51.120;17.114;2023-05-18T00:07:56;102479.58;;;25.80;33.42
42511;BME280;28141;51.120;17.114;2023-05-18T00:11:36;102486.20;;;25.79;33.38
42511;BME280;28141;51.120;17.114;2023-05-18T00:14:53;102484.02;;;25.75;33.57
42511;BME280;28141;51.120;17.114;2023-05-18T00:18:07;102480.62;;;25.73;33.53
42511;BME280;28141;51.120;17.114;2023-05-18T00:21:22;102486.57;;;25.70;33.31
42511;BME280;28141;51.120;17.114;2023-05-18T00:25:08;102500.04;;;25.73;33.48
42511;BME280;28141;51.120;17.114;2023-05-18T00:28:23;102512.00;;;25.73;33.61
42511;BME280;28141;51.120;17.114;2023-05-18T00:31:38;102503.45;;;25.75;33.24
42511;BME280;28141;51.120;17.114;2023-05-18T00:34:52;102505.59;;;25.73;33.29
42511;BME280;28141;51.120;17.114;2023-05-18T00:38:32;102504.28;;;25.69;33.51
42511;BME280;28141;51.120;17.114;2023-05-18T00:41:46;102512.20;;;25.72;33.47
42511;BME280;28141;51.120;17.114;2023-05-18T00:45:00;102517.95;;;25.70;33.54
42511;BME280;28141;51.120;17.114;2023-05-18T00:48:14;102514.13;;;25.71;33.80
42511;BME280;28141;51.120;17.114;2023-05-18T00:51:55;102521.59;;;25.71;33.52
42511;BME280;28141;51.120;17.114;2023-05-18T00:55:10;102523.11;;;25.73;33.58
42511;BME280;28141;51.120;17.114;2023-05-18T00:58:25;102530.77;;;25.71;33.54
42511;BME280;28141;51.120;17.114;2023-05-18T01:01:40;102526.88;;;25.66;33.75
42511;BME280;28141;51.120;17.114;2023-05-18T01:05:24;102532.86;;;25.63;33.55
42511;BME280;28141;51.120;17.114;2023-05-18T01:08:38;102537.12;;;25.65;33.83
42511;BME280;28141;51.120;17.114;2023-05-18T01:12:06;102544.40;;;25.66;33.48
42511;BME280;28141;51.120;17.114;2023-05-18T01:15:53;102546.07;;;25.61;33.62
42511;BME280;28141;51.120;17.114;2023-05-18T01:26:37;102556.77;;;25.42;33.87
42511;BME280;28141;51.120;17.114;2023-05-18T01:29:54;102547.85;;;25.47;33.70
42511;BME280;28141;51.120;17.114;2023-05-18T01:33:11;102552.82;;;25.52;33.76
42511;BME280;28141;51.120;17.114;2023-05-18T01:36:25;102553.04;;;25.57;33.68
42511;BME280;28141;51.120;17.114;2023-05-18T01:39:39;102563.91;;;25.52;33.56
42511;BME280;28141;51.120;17.114;2023-05-18T01:43:23;102559.42;;;25.51;33.73
42511;BME280;28141;51.120;17.114;2023-05-18T01:50:09;102558.68;;;25.42;33.54
42511;BME280;28141;51.120;17.114;2023-05-18T01:53:54;102568.09;;;25.41;33.85
42511;BME280;28141;51.120;17.114;2023-05-18T01:57:11;102566.42;;;25.46;33.77
42511;BME280;28141;51.120;17.114;2023-05-18T02:00:25;102568.96;;;25.41;33.85
42511;BME280;28141;51.120;17.114;2023-05-18T02:03:39;102571.50;;;25.43;34.27
42511;BME280;28141;51.120;17.114;2023-05-18T02:07:19;102575.55;;;25.40;33.84
42511;BME280;28141;51.120;17.114;2023-05-18T02:10:34;102575.76;;;25.39;33.85
42511;BME280;28141;51.120;17.114;2023-05-18T02:13:48;102567.82;;;25.36;33.79
42511;BME280;28141;51.120;17.114;2023-05-18T02:17:02;102573.17;;;25.37;33.74
42511;BME280;28141;51.120;17.114;2023-05-18T02:20:42;102576.15;;;25.36;33.88
42511;BME280;28141;51.120;17.114;2023-05-18T02:23:56;102578.05;;;25.35;33.79
42511;BME280;28141;51.120;17.114;2023-05-18T02:27:10;102584.66;;;25.34;33.87
42511;BME280;28141;51.120;17.114;2023-05-18T02:30:24;102578.67;;;25.31;33.85
42511;BME280;28141;51.120;17.114;2023-05-18T02:34:04;102584.00;;;25.32;33.93
42511;BME280;28141;51.120;17.114;2023-05-18T02:37:18;102584.42;;;25.29;33.67
42511;BME280;28141;51.120;17.114;2023-05-18T02:40:35;102585.48;;;25.28;34.33
42511;BME280;28141;51.120;17.114;2023-05-18T02:43:49;102590.16;;;25.28;33.75
42511;BME280;28141;51.120;17.114;2023-05-18T02:47:30;102589.49;;;25.26;34.02
42511;BME280;28141;51.120;17.114;2023-05-18T02:50:44;102597.42;;;25.29;34.13
42511;BME280;28141;51.120;17.114;2023-05-18T02:54:01;102593.38;;;25.31;34.06
42511;BME280;28141;51.120;17.114;2023-05-18T02:57:15;102600.02;;;25.30;33.69
42511;BME280;28141;51.120;17.114;2023-05-18T03:00:55;102599.78;;;25.32;33.94
42511;BME280;28141;51.120;17.114;2023-05-18T03:04:11;102605.12;;;25.33;33.69
42511;BME280;28141;51.120;17.114;2023-05-18T03:07:26;102604.47;;;25.31;33.87
42511;BME280;28141;51.120;17.114;2023-05-18T03:10:40;102605.34;;;25.32;33.88
42511;BME280;28141;51.120;17.114;2023-05-18T03:13:54;102611.73;;;25.32;33.97
42511;BME280;28141;51.120;17.114;2023-05-18T03:17:35;102611.09;;;25.30;33.89
42511;BME280;28141;51.120;17.114;2023-05-18T03:20:49;102609.81;;;25.33;34.13
42511;BME280;28141;51.120;17.114;2023-05-18T03:24:05;102607.24;;;25.31;34.15
42511;BME280;28141;51.120;17.114;2023-05-18T03:27:19;102608.96;;;25.32;33.65
42511;BME280;28141;51.120;17.114;2023-05-18T03:31:05;102610.29;;;25.36;33.81
42511;BME280;28141;51.120;17.114;2023-05-18T03:34:19;102609.44;;;25.36;33.26
42511;BME280;28141;51.120;17.114;2023-05-18T03:37:33;102614.17;;;25.42;33.50
42511;BME280;28141;51.120;17.114;2023-05-18T03:40:47;102609.48;;;25.42;33.23
42511;BME280;28141;51.120;17.114;2023-05-18T03:44:28;102618.47;;;25.44;33.10
42511;BME280;28141;51.120;17.114;2023-05-18T03:47:41;102618.09;;;25.48;33.00
42511;BME280;28141;51.120;17.114;2023-05-18T03:50:55;102618.75;;;25.50;32.92
42511;BME280;28141;51.120;17.114;2023-05-18T03:54:10;102630.04;;;25.48;32.70
42511;BME280;28141;51.120;17.114;2023-05-18T03:57:50;102638.37;;;25.48;32.52
42511;BME280;28141;51.120;17.114;2023-05-18T04:01:06;102642.47;;;25.52;32.24
42511;BME280;28141;51.120;17.114;2023-05-18T04:04:20;102637.13;;;25.51;32.20
42511;BME280;28141;51.120;17.114;2023-05-18T04:07:36;102641.62;;;25.52;32.19
42511;BME280;28141;51.120;17.114;2023-05-18T04:11:25;102651.86;;;25.51;32.16
42511;BME280;28141;51.120;17.114;2023-05-18T04:14:38;102646.94;;;25.53;32.38
42511;BME280;28141;51.120;17.114;2023-05-18T04:17:54;102660.61;;;25.55;31.96
42511;BME280;28141;51.120;17.114;2023-05-18T04:21:08;102657.66;;;25.56;31.84
42511;BME280;28141;51.120;17.114;2023-05-18T04:24:50;102669.41;;;25.58;31.85
42511;BME280;28141;51.120;17.114;2023-05-18T04:28:09;102661.83;;;25.67;31.64
42511;BME280;28141;51.120;17.114;2023-05-18T04:31:23;102657.99;;;25.68;31.79
42511;BME280;28141;51.120;17.114;2023-05-18T04:34:40;102667.47;;;25.73;31.36
42511;BME280;28141;51.120;17.114;2023-05-18T04:38:21;102668.57;;;25.79;31.50
42511;BME280;28141;51.120;17.114;2023-05-18T04:41:36;102670.52;;;25.85;31.27
42511;BME280;28141;51.120;17.114;2023-05-18T04:44:50;102667.55;;;25.87;30.91
42511;BME280;28141;51.120;17.114;2023-05-18T04:48:06;102666.69;;;25.86;31.21
42511;BME280;28141;51.120;17.114;2023-05-18T04:51:53;102674.82;;;25.88;31.13
42511;BME280;28141;51.120;17.114;2023-05-18T04:55:12;102672.90;;;25.88;31.14
42511;BME280;28141;51.120;17.114;2023-05-18T04:58:26;102672.31;;;25.93;31.08
42511;BME280;28141;51.120;17.114;2023-05-18T05:01:40;102676.45;;;26.03;31.09
42511;BME280;28141;51.120;17.114;2023-05-18T05:05:21;102676.95;;;26.13;30.67
42511;BME280;28141;51.120;17.114;2023-05-18T05:08:36;102675.72;;;26.23;30.62
42511;BME280;28141;51.120;17.114;2023-05-18T05:11:50;102678.11;;;26.26;30.62
42511;BME280;28141;51.120;17.114;2023-05-18T05:15:05;102682.20;;;26.30;29.95
42511;BME280;28141;51.120;17.114;2023-05-18T05:18:46;102689.08;;;26.34;30.04
42511;BME280;28141;51.120;17.114;2023-05-18T05:22:00;102680.34;;;26.37;29.87
42511;BME280;28141;51.120;17.114;2023-05-18T05:25:14;102690.84;;;26.41;29.93
42511;BME280;28141;51.120;17.114;2023-05-18T05:28:28;102686.20;;;26.48;29.80
42511;BME280;28141;51.120;17.114;2023-05-18T05:32:08;102700.13;;;26.55;29.78
42511;BME280;28141;51.120;17.114;2023-05-18T05:35:22;102692.04;;;26.60;29.46
42511;BME280;28141;51.120;17.114;2023-05-18T05:38:36;102693.97;;;26.66;29.68
42511;BME280;28141;51.120;17.114;2023-05-18T05:42:11;102689.30;;;26.73;29.56
42511;BME280;28141;51.120;17.114;2023-05-18T05:45:26;102693.38;;;26.77;29.46
42511;BME280;28141;51.120;17.114;2023-05-18T05:48:42;102684.64;;;26.80;30.11
42511;BME280;28141;51.120;17.114;2023-05-18T05:51:56;102692.80;;;26.88;29.27
42511;BME280;28141;51.120;17.114;2023-05-18T05:55:36;102696.94;;;26.93;29.26
42511;BME280;28141;51.120;17.114;2023-05-18T05:58:54;102700.17;;;27.03;29.31
42511;BME280;28141;51.120;17.114;2023-05-18T06:02:08;102693.15;;;27.13;29.05
42511;BME280;28141;51.120;17.114;2023-05-18T06:05:22;102697.45;;;27.22;28.53
42511;BME280;28141;51.120;17.114;2023-05-18T06:11:22;102699.66;;;27.47;28.87
42511;BME280;28141;51.120;17.114;2023-05-18T06:14:36;102700.07;;;27.50;28.51
42511;BME280;28141;51.120;17.114;2023-05-18T06:17:50;102699.48;;;27.55;27.84
42511;BME280;28141;51.120;17.114;2023-05-18T06:21:03;102706.77;;;27.63;27.85
42511;BME280;28141;51.120;17.114;2023-05-18T06:24:44;102712.98;;;27.71;28.27
42511;BME280;28141;51.120;17.114;2023-05-18T06:27:58;102708.30;;;27.78;28.14
42511;BME280;28141;51.120;17.114;2023-05-18T06:31:12;102710.87;;;27.86;28.23
42511;BME280;28141;51.120;17.114;2023-05-18T06:34:26;102713.63;;;27.93;27.68
42511;BME280;28141;51.120;17.114;2023-05-18T06:38:06;102716.84;;;28.03;28.00
42511;BME280;28141;51.120;17.114;2023-05-18T06:41:21;102711.94;;;28.12;27.30
42511;BME280;28141;51.120;17.114;2023-05-18T06:44:35;102701.45;;;28.20;27.51
42511;BME280;28141;51.120;17.114;2023-05-18T06:47:49;102708.08;;;28.32;27.34
42511;BME280;28141;51.120;17.114;2023-05-18T06:51:30;102711.28;;;28.43;27.43
42511;BME280;28141;51.120;17.114;2023-05-18T06:54:45;102712.98;;;28.50;26.88
42511;BME280;28141;51.120;17.114;2023-05-18T06:57:59;102712.52;;;28.60;26.97
42511;BME280;28141;51.120;17.114;2023-05-18T07:01:15;102705.40;;;28.70;27.22
42511;BME280;28141;51.120;17.114;2023-05-18T07:04:57;102711.63;;;28.79;26.84
42511;BME280;28141;51.120;17.114;2023-05-18T07:08:11;102711.18;;;28.82;26.20
42511;BME280;28141;51.120;17.114;2023-05-18T07:11:25;102717.58;;;28.96;26.62
42511;BME280;28141;51.120;17.114;2023-05-18T07:14:39;102717.10;;;29.05;26.54
42511;BME280;28141;51.120;17.114;2023-05-18T07:18:19;102719.20;;;29.10;26.57
42511;BME280;28141;51.120;17.114;2023-05-18T07:21:33;102716.56;;;29.22;25.89
42511;BME280;28141;51.120;17.114;2023-05-18T07:24:47;102711.20;;;29.27;26.64
42511;BME280;28141;51.120;17.114;2023-05-18T07:28:01;102714.38;;;29.37;25.84
42511;BME280;28141;51.120;17.114;2023-05-18T07:31:41;102717.10;;;29.50;26.17
42511;BME280;28141;51.120;17.114;2023-05-18T07:34:55;102723.70;;;29.56;26.36
42511;BME280;28141;51.120;17.114;2023-05-18T07:38:10;102721.05;;;29.67;25.90
42511;BME280;28141;51.120;17.114;2023-05-18T07:41:24;102720.38;;;29.72;25.84
42511;BME280;28141;51.120;17.114;2023-05-18T07:45:07;102718.80;;;29.83;25.80
42511;BME280;28141;51.120;17.114;2023-05-18T07:48:21;102720.45;;;29.90;25.49
42511;BME280;28141;51.120;17.114;2023-05-18T07:51:35;102716.09;;;30.01;25.35
42511;BME280;28141;51.120;17.114;2023-05-18T07:54:49;102716.87;;;30.08;25.00
42511;BME280;28141;51.120;17.114;2023-05-18T07:58:30;102714.19;;;30.20;25.51
42511;BME280;28141;51.120;17.114;2023-05-18T08:01:44;102717.20;;;30.18;25.48
42511;BME280;28141;51.120;17.114;2023-05-18T08:04:58;102710.79;;;30.18;25.13
42511;BME280;28141;51.120;17.114;2023-05-18T08:08:12;102727.04;;;30.27;25.03
42511;BME280;28141;51.120;17.114;2023-05-18T08:11:56;102723.09;;;30.35;25.28
42511;BME280;28141;51.120;17.114;2023-05-18T08:15:10;102719.97;;;30.43;25.15
42511;BME280;28141;51.120;17.114;2023-05-18T08:18:24;102720.53;;;30.52;25.13
42511;BME280;28141;51.120;17.114;2023-05-18T08:21:40;102712.26;;;30.63;25.48
42511;BME280;28141;51.120;17.114;2023-05-18T08:25:20;102712.26;;;30.63;24.95
42511;BME280;28141;51.120;17.114;2023-05-18T08:28:34;102710.61;;;30.74;25.00
42511;BME280;28141;51.120;17.114;2023-05-18T08:31:50;102710.33;;;30.82;24.77
42511;BME280;28141;51.120;17.114;2023-05-18T08:35:05;102700.13;;;30.88;25.24
42511;BME280;28141;51.120;17.114;2023-05-18T08:38:47;102707.73;;;30.99;24.64
42511;BME280;28141;51.120;17.114;2023-05-18T08:42:06;102705.32;;;31.02;24.71
42511;BME280;28141;51.120;17.114;2023-05-18T08:45:31;102702.45;;;31.09;24.37
42511;BME280;28141;51.120;17.114;2023-05-18T08:49:16;102704.55;;;31.13;24.38
42511;BME280;28141;51.120;17.114;2023-05-18T08:52:35;102710.06;;;31.20;24.30
42511;BME280;28141;51.120;17.114;2023-05-18T08:55:52;102701.09;;;31.30;24.29
42511;BME280;28141;51.120;17.114;2023-05-18T08:59:39;102702.80;;;31.31;24.23
42511;BME280;28141;51.120;17.114;2023-05-18T09:02:55;102702.10;;;31.35;24.05
42511;BME280;28141;51.120;17.114;2023-05-18T09:06:09;102699.41;;;31.40;24.35
42511;BME280;28141;51.120;17.114;2023-05-18T09:09:24;102699.70;;;31.50;24.65
42511;BME280;28141;51.120;17.114;2023-05-18T09:13:05;102695.95;;;31.56;24.04
42511;BME280;28141;51.120;17.114;2023-05-18T09:16:20;102700.82;;;31.61;23.81
42511;BME280;28141;51.120;17.114;2023-05-18T09:19:34;102701.63;;;31.68;23.60
42511;BME280;28141;51.120;17.114;2023-05-18T09:22:48;102697.72;;;31.81;24.37
42511;BME280;28141;51.120;17.114;2023-05-18T09:26:31;102712.61;;;31.93;24.11
42511;BME280;28141;51.120;17.114;2023-05-18T09:29:52;102699.07;;;32.02;24.12
42511;BME280;28141;51.120;17.114;2023-05-18T09:37:01;102698.51;;;32.11;23.75
42511;BME280;28141;51.120;17.114;2023-05-18T09:40:16;102702.44;;;32.22;23.50
42511;BME280;28141;51.120;17.114;2023-05-18T09:43:34;102691.95;;;32.29;23.63
42511;BME280;28141;51.120;17.114;2023-05-18T09:46:56;102692.55;;;32.31;24.48
42511;BME280;28141;51.120;17.114;2023-05-18T09:50:37;102686.80;;;32.38;23.58
42511;BME280;28141;51.120;17.114;2023-05-18T09:53:55;102697.30;;;32.42;23.01
42511;BME280;28141;51.120;17.114;2023-05-18T09:57:09;102684.98;;;32.43;23.26
42511;BME280;28141;51.120;17.114;2023-05-18T10:00:23;102668.25;;;32.48;22.66
42511;BME280;28141;51.120;17.114;2023-05-18T10:04:05;102676.66;;;32.48;23.13
42511;BME280;28141;51.120;17.114;2023-05-18T10:07:21;102672.28;;;32.52;22.98
42511;BME280;28141;51.120;17.114;2023-05-18T10:10:37;102672.52;;;32.51;23.15
42511;BME280;28141;51.120;17.114;2023-05-18T10:13:53;102667.37;;;32.59;23.43
42511;BME280;28141;51.120;17.114;2023-05-18T10:17:37;102670.18;;;32.59;23.19
42511;BME280;28141;51.120;17.114;2023-05-18T10:20:55;102673.11;;;32.64;23.14
42511;BME280;28141;51.120;17.114;2023-05-18T10:24:12;102662.37;;;32.61;23.15
42511;BME280;28141;51.120;17.114;2023-05-18T10:27:29;102664.69;;;32.64;22.71
42511;BME280;28141;51.120;17.114;2023-05-18T10:31:14;102673.96;;;32.65;23.06
42511;BME280;28141;51.120;17.114;2023-05-18T10:34:30;102670.64;;;32.68;23.12
42511;BME280;28141;51.120;17.114;2023-05-18T10:37:45;102670.05;;;32.66;23.66
42511;BME280;28141;51.120;17.114;2023-05-18T10:41:06;102674.30;;;32.69;23.27
42511;BME280;28141;51.120;17.114;2023-05-18T10:44:47;102665.27;;;32.67;23.00
42511;BME280;28141;51.120;17.114;2023-05-18T10:48:04;102660.27;;;32.69;22.89
42511;BME280;28141;51.120;17.114;2023-05-18T10:51:20;102664.78;;;32.70;23.03
42511;BME280;28141;51.120;17.114;2023-05-18T10:54:35;102658.47;;;32.74;23.38
42511;BME280;28141;51.120;17.114;2023-05-18T10:58:25;102651.39;;;32.72;23.07
42511;BME280;28141;51.120;17.114;2023-05-18T11:01:40;102652.00;;;32.74;23.39
42511;BME280;28141;51.120;17.114;2023-05-18T11:04:55;102661.52;;;32.73;22.90
42511;BME280;28141;51.120;17.114;2023-05-18T11:08:09;102654.81;;;32.74;23.05
42511;BME280;28141;51.120;17.114;2023-05-18T11:11:50;102657.62;;;32.74;22.62
42511;BME280;28141;51.120;17.114;2023-05-18T11:15:07;102655.17;;;32.77;22.32
42511;BME280;28141;51.120;17.114;2023-05-18T11:22:14;102652.37;;;32.66;22.37
42511;BME280;28141;51.120;17.114;2023-05-18T11:25:36;102654.65;;;32.69;21.78
42511;BME280;28141;51.120;17.114;2023-05-18T11:28:51;102647.34;;;32.68;22.06
42511;BME280;28141;51.120;17.114;2023-05-18T11:36:08;102657.13;;;32.65;22.34
42511;BME280;28141;51.120;17.114;2023-05-18T11:39:24;102661.89;;;32.64;22.28
42511;BME280;28141;51.120;17.114;2023-05-18T11:42:38;102654.90;;;32.67;22.34
42511;BME280;28141;51.120;17.114;2023-05-18T11:46:21;102652.95;;;32.68;22.16
42511;BME280;28141;51.120;17.114;2023-05-18T11:49:41;102650.99;;;32.68;21.73
42511;BME280;28141;51.120;17.114;2023-05-18T11:52:57;102651.24;;;32.67;21.87
42511;BME280;28141;51.120;17.114;2023-05-18T11:56:12;102651.15;;;32.73;22.27
42511;BME280;28141;51.120;17.114;2023-05-18T11:59:57;102653.10;;;32.73;22.11
42511;BME280;28141;51.120;17.114;2023-05-18T12:03:12;102648.95;;;32.75;22.15
42511;BME280;28141;51.120;17.114;2023-05-18T12:06:26;102646.84;;;32.82;21.81
42511;BME280;28141;51.120;17.114;2023-05-18T12:09:41;102637.68;;;32.87;21.91
42511;BME280;28141;51.120;17.114;2023-05-18T12:13:23;102641.19;;;32.94;22.07
42511;BME280;28141;51.120;17.114;2023-05-18T12:16:38;102636.01;;;33.03;21.73
42511;BME280;28141;51.120;17.114;2023-05-18T12:19:53;102637.41;;;33.17;21.89
42511;BME280;28141;51.120;17.114;2023-05-18T12:23:07;102638.99;;;33.24;22.29
42511;BME280;28141;51.120;17.114;2023-05-18T12:26:47;102635.45;;;33.46;21.81
42511;BME280;28141;51.120;17.114;2023-05-18T12:30:02;102631.34;;;33.53;21.89
42511;BME280;28141;51.120;17.114;2023-05-18T12:33:17;102613.84;;;33.63;21.63
42511;BME280;28141;51.120;17.114;2023-05-18T12:36:33;102622.22;;;33.75;21.43
42511;BME280;28141;51.120;17.114;2023-05-18T12:40:15;102620.42;;;33.85;21.56
42511;BME280;28141;51.120;17.114;2023-05-18T12:43:35;102613.65;;;34.03;21.73
42511;BME280;28141;51.120;17.114;2023-05-18T12:46:49;102613.70;;;34.08;21.27
42511;BME280;28141;51.120;17.114;2023-05-18T12:50:06;102613.59;;;34.20;21.55
42511;BME280;28141;51.120;17.114;2023-05-18T12:53:50;102613.85;;;34.35;21.22
42511;BME280;28141;51.120;17.114;2023-05-18T12:57:07;102621.23;;;34.41;21.15
42511;BME280;28141;51.120;17.114;2023-05-18T13:00:22;102615.09;;;34.44;20.99
42511;BME280;28141;51.120;17.114;2023-05-18T13:03:40;102603.10;;;34.54;20.97
42511;BME280;28141;51.120;17.114;2023-05-18T13:07:20;102606.38;;;34.67;20.90
42511;BME280;28141;51.120;17.114;2023-05-18T13:10:35;102598.94;;;34.78;20.70
42511;BME280;28141;51.120;17.114;2023-05-18T13:17:55;102603.20;;;34.81;20.62
42511;BME280;28141;51.120;17.114;2023-05-18T13:21:10;102597.98;;;34.94;20.68
42511;BME280;28141;51.120;17.114;2023-05-18T13:24:24;102600.07;;;35.04;20.12
42511;BME280;28141;51.120;17.114;2023-05-18T13:27:39;102603.84;;;35.14;20.44
42511;BME280;28141;51.120;17.114;2023-05-18T13:31:22;102605.97;;;35.29;20.26
42511;BME280;28141;51.120;17.114;2023-05-18T13:34:37;102611.40;;;35.36;20.42
42511;BME280;28141;51.120;17.114;2023-05-18T13:37:52;102601.06;;;35.46;20.18
42511;BME280;28141;51.120;17.114;2023-05-18T13:41:07;102596.36;;;35.57;20.02
42511;BME280;28141;51.120;17.114;2023-05-18T13:44:21;102582.36;;;35.72;19.83
42511;BME280;28141;51.120;17.114;2023-05-18T13:48:04;102592.04;;;35.81;19.70
42511;BME280;28141;51.120;17.114;2023-05-18T13:51:21;102587.89;;;35.94;19.43
42511;BME280;28141;51.120;17.114;2023-05-18T13:54:35;102572.45;;;36.02;19.66
42511;BME280;28141;51.120;17.114;2023-05-18T13:57:50;102572.20;;;36.13;19.19
42511;BME280;28141;51.120;17.114;2023-05-18T14:01:33;102568.34;;;36.25;19.30
42511;BME280;28141;51.120;17.114;2023-05-18T14:04:47;102560.77;;;36.35;19.09
42511;BME280;28141;51.120;17.114;2023-05-18T14:08:01;102562.23;;;36.43;19.40
42511;BME280;28141;51.120;17.114;2023-05-18T14:11:15;102563.97;;;36.54;19.07
42511;BME280;28141;51.120;17.114;2023-05-18T14:14:30;102564.26;;;36.63;19.01
42511;BME280;28141;51.120;17.114;2023-05-18T14:18:12;102554.71;;;36.79;18.86
42511;BME280;28141;51.120;17.114;2023-05-18T14:21:26;102543.73;;;36.87;18.65
42511;BME280;28141;51.120;17.114;2023-05-18T14:24:40;102557.30;;;36.96;19.03
42511;BME280;28141;51.120;17.114;2023-05-18T14:27:54;102551.38;;;36.97;18.81
42511;BME280;28141;51.120;17.114;2023-05-18T14:31:33;102546.29;;;37.04;18.64
42511;BME280;28141;51.120;17.114;2023-05-18T14:34:48;102547.48;;;37.18;18.43
42511;BME280;28141;51.120;17.114;2023-05-18T14:38:09;102545.49;;;37.29;18.59
42511;BME280;28141;51.120;17.114;2023-05-18T14:41:50;102550.56;;;37.22;18.52
42511;BME280;28141;51.120;17.114;2023-05-18T14:45:05;102548.87;;;37.16;18.53
42511;BME280;28141;51.120;17.114;2023-05-18T14:48:19;102542.40;;;37.20;18.42
42511;BME280;28141;51.120;17.114;2023-05-18T14:51:34;102550.85;;;37.25;18.38
42511;BME280;28141;51.120;17.114;2023-05-18T14:55:13;102551.13;;;37.34;18.48
42511;BME280;28141;51.120;17.114;2023-05-18T14:58:27;102547.45;;;37.34;18.27
42511;BME280;28141;51.120;17.114;2023-05-18T15:01:41;102549.15;;;37.35;18.39
42511;BME280;28141;51.120;17.114;2023-05-18T15:04:55;102551.98;;;37.24;18.15
42511;BME280;28141;51.120;17.114;2023-05-18T15:08:33;102550.02;;;37.20;18.47
42511;BME280;28141;51.120;17.114;2023-05-18T15:11:48;102553.41;;;37.27;18.43
42511;BME280;28141;51.120;17.114;2023-05-18T15:15:03;102550.28;;;37.49;18.57
42511;BME280;28141;51.120;17.114;2023-05-18T15:18:17;102552.54;;;37.67;18.17
42511;BME280;28141;51.120;17.114;2023-05-18T15:21:56;102553.34;;;37.93;18.28
42511;BME280;28141;51.120;17.114;2023-05-18T15:25:10;102547.61;;;38.18;18.03
42511;BME280;28141;51.120;17.114;2023-05-18T15:28:24;102548.76;;;38.17;17.98
42511;BME280;28141;51.120;17.114;2023-05-18T15:31:38;102541.13;;;38.18;18.06
42511;BME280;28141;51.120;17.114;2023-05-18T15:35:17;102540.67;;;38.50;17.91
42511;BME280;28141;51.120;17.114;2023-05-18T15:38:31;102544.20;;;38.81;17.87
42511;BME280;28141;51.120;17.114;2023-05-18T15:41:45;102532.16;;;39.04;17.48
42511;BME280;28141;51.120;17.114;2023-05-18T15:44:59;102541.86;;;39.27;17.38
42511;BME280;28141;51.120;17.114;2023-05-18T15:48:39;102544.02;;;39.40;17.32
42511;BME280;28141;51.120;17.114;2023-05-18T15:51:53;102535.70;;;39.54;17.32
42511;BME280;28141;51.120;17.114;2023-05-18T15:55:08;102536.91;;;39.71;17.17
42511;BME280;28141;51.120;17.114;2023-05-18T15:58:22;102537.56;;;39.92;17.39
42511;BME280;28141;51.120;17.114;2023-05-18T16:02:01;102540.52;;;40.06;17.08
42511;BME280;28141;51.120;17.114;2023-05-18T16:05:15;102540.56;;;39.77;17.17
42511;BME280;28141;51.120;17.114;2023-05-18T16:08:29;102542.48;;;39.24;17.21
42511;BME280;28141;51.120;17.114;2023-05-18T16:11:43;102550.02;;;38.94;17.63
42511;BME280;28141;51.120;17.114;2023-05-18T16:15:22;102550.24;;;38.64;17.84
42511;BME280;28141;51.120;17.114;2023-05-18T16:18:37;102548.06;;;38.46;18.12
42511;BME280;28141;51.120;17.114;2023-05-18T16:21:51;102544.38;;;38.45;18.08
42511;BME280;28141;51.120;17.114;2023-05-18T16:25:06;102538.56;;;38.76;17.68
42511;BME280;28141;51.120;17.114;2023-05-18T16:28:46;102536.70;;;38.95;17.78
42511;BME280;28141;51.120;17.114;2023-05-18T16:32:00;102534.91;;;39.14;18.08
42511;BME280;28141;51.120;17.114;2023-05-18T16:35:14;102543.62;;;39.23;17.63
42511;BME280;28141;51.120;17.114;2023-05-18T16:38:28;102543.79;;;39.36;17.71
42511;BME280;28141;51.120;17.114;2023-05-18T16:42:16;102542.95;;;39.36;17.54
42511;BME280;28141;51.120;17.114;2023-05-18T16:45:33;102544.02;;;39.40;17.50
42511;BME280;28141;51.120;17.114;2023-05-18T16:48:47;102546.30;;;39.43;17.34
42511;BME280;28141;51.120;17.114;2023-05-18T16:52:01;102550.83;;;39.39;17.72
42511;BME280;28141;51.120;17.114;2023-05-18T16:55:41;102556.45;;;39.15;17.58
42511;BME280;28141;51.120;17.114;2023-05-18T16:58:55;102553.86;;;38.75;18.00
42511;BME280;28141;51.120;17.114;2023-05-18T17:02:09;102554.53;;;38.51;17.79
42511;BME280;28141;51.120;17.114;2023-05-18T17:05:26;102561.18;;;38.26;18.05
42511;BME280;28141;51.120;17.114;2023-05-18T17:09:04;102555.56;;;38.01;18.27
42511;BME280;28141;51.120;17.114;2023-05-18T17:12:18;102554.47;;;38.07;18.18
42511;BME280;28141;51.120;17.114;2023-05-18T17:15:33;102557.79;;;38.19;18.29
42511;BME280;28141;51.120;17.114;2023-05-18T17:18:48;102552.41;;;38.28;18.47
42511;BME280;28141;51.120;17.114;2023-05-18T17:22:27;102561.42;;;38.30;18.19
42511;BME280;28141;51.120;17.114;2023-05-18T17:25:41;102561.18;;;38.26;18.26
42511;BME280;28141;51.120;17.114;2023-05-18T17:28:55;102564.02;;;38.21;18.25
42511;BME280;28141;51.120;17.114;2023-05-18T17:32:10;102565.71;;;38.22;18.08
42511;BME280;28141;51.120;17.114;2023-05-18T17:35:48;102567.45;;;38.13;18.33
42511;BME280;28141;51.120;17.114;2023-05-18T17:39:02;102557.84;;;38.04;18.37
42511;BME280;28141;51.120;17.114;2023-05-18T17:42:16;102562.98;;;37.77;18.54
42511;BME280;28141;51.120;17.114;2023-05-18T17:45:30;102562.13;;;37.56;18.68
42511;BME280;28141;51.120;17.114;2023-05-18T17:49:09;102570.35;;;37.32;18.76